Cheltenham, PA (19012)

11:32 PM EDT on September 14, 2014 (GMT -0400)
Elkin's Park - Logan's Alley | Change Station
CLOSE
Current Station
Personal Weather Station
Location: Jenkintown, PA
Elevation: 276 ft
Nearby Weather Stations

Elev 276 ft 40.09 °N, 75.13 °W | Updated 10 minutes ago

Clear
Clear
51.4 °F
Feels Like 51.4 °F
N
0.0
Wind Variable Wind from West

Today
High -- | Low -- °F
--% Chance of Precip.
Yesterday
High -- | Low -- °F
Precip. -- in
6:40 AM 7:10 PM
Waning Gibbous, 59% visible
Pressure 30.22 in
Visibility 10.0 miles
Clouds Clear
Dew Point 49 °F
Humidity 92%
Rainfall 0.00 in
Snow Depth Not available.
UV 0 out of 12
Pollen 4.20 out of 12
Air Quality Not available.
Flu Activity Not available.
METAR KPNE 150254Z AUTO 24003KT 10SM CLR 14/09 A3022 RMK AO2 SLP232 T01390089 50002 TSNO

More Conditions Fewer Conditions

Pressure 30.22 in
Visibility 10.0 miles
Clouds Clear
Dew Point 49 °F
Humidity 92%
Rainfall 0.00 in
Snow Depth Not available.
UV 0 out of 12
Pollen 4.20 out of 12
Air Quality Not available.
Flu Activity Not available.
METAR KPNE 150254Z AUTO 24003KT 10SM CLR 14/09 A3022 RMK AO2 SLP232 T01390089 50002 TSNO

More Conditions Fewer Conditions

10-Day Weather Forecast

Almanac

Astronomy

Sep. 14, 2014 Rise Set
Actual Time 6:40 AM EDT 7:10 PM EDT
Civil Twilight 6:13 AM EDT 7:38 PM EDT
Nautical Twilight 5:41 AM EDT 8:10 PM EDT
Astronomical Twilight 5:08 AM EDT 8:42 PM EDT
Moon 11:01 PM EDT (9/14) 12:44 PM EDT (9/14)
Length of Visible Light 13h 24m
Length of Day
12h 30m
Tomorrow will be 2m 37s shorter.
Waning Gibbous, 59% of the Moon is Illuminated
Today
Waning Gibbous
Sep 15
Last Quarter
Sep 24
New
Oct 1
First Quarter
Oct 8
Full

Today's Extremes

State Highs State Lows

Community

WunderPhotos

Upload Photos

1,753,391 photos uploaded!

WunderBlogs® & News

Nearby

Snow Depth

Station Depth Elevation
No new snow has been reported.

Earthquake Activity

City Distance Mag. Time & Date
No recent earthquake activity has been reported nearby.
Minimum magnitude displayed is 2.5.

Coastal Water Temperatures

Place Temperature
No Stations Reporting

Nearby Weather Stations